createdAt,value
2019-01-13T00:00:12.995Z,54.3
2019-01-13T00:01:10.494Z,48.3
2019-01-13T00:02:10.480Z,45.3
2019-01-13T00:03:10.516Z,54.3
2019-01-13T00:04:10.463Z,63.4
2019-01-13T00:05:10.568Z,66.4
2019-01-13T00:06:10.486Z,66.4
2019-01-13T00:07:10.490Z,69.4
2019-01-13T00:08:10.507Z,69.4
2019-01-13T00:09:10.520Z,57.3
2019-01-13T00:10:10.526Z,66.4
2019-01-13T00:11:10.488Z,72.4
2019-01-13T00:12:10.511Z,66.4
2019-01-13T00:13:10.535Z,75.4
2019-01-13T00:14:10.447Z,72.4
2019-01-13T00:15:10.550Z,69.4
2019-01-13T00:16:10.500Z,51.3
2019-01-13T00:17:10.483Z,54.3
2019-01-13T00:18:10.493Z,75.4
2019-01-13T00:19:10.538Z,75.4
2019-01-13T00:20:10.470Z,60.3
2019-01-13T00:21:10.507Z,57.3
2019-01-13T00:22:10.512Z,60.3
2019-01-13T00:23:10.498Z,75.4
2019-01-13T00:24:10.597Z,66.4
2019-01-13T00:25:10.496Z,75.4
2019-01-13T00:26:10.503Z,75.4
2019-01-13T00:27:10.500Z,66.4
2019-01-13T00:28:10.537Z,66.4
2019-01-13T00:29:10.486Z,81.4
2019-01-13T00:30:10.551Z,81.4
2019-01-13T00:31:10.467Z,81.4
2019-01-13T00:32:10.504Z,69.4
2019-01-13T00:33:10.476Z,81.4
2019-01-13T00:34:10.584Z,78.4
2019-01-13T00:35:10.480Z,84.4
2019-01-13T00:36:10.521Z,90.4
2019-01-13T00:37:10.556Z,81.4
2019-01-13T00:38:10.484Z,69.4
2019-01-13T00:39:10.490Z,66.4
2019-01-13T00:40:10.500Z,81.4
2019-01-13T00:41:10.552Z,72.4
2019-01-13T00:42:10.466Z,63.4
2019-01-13T00:43:10.479Z,75.4
2019-01-13T00:44:10.495Z,66.4
2019-01-13T00:45:10.487Z,81.4
2019-01-13T00:46:10.545Z,66.4
2019-01-13T00:47:10.462Z,90.4
2019-01-13T00:48:10.473Z,81.4
2019-01-13T00:49:10.494Z,66.4
2019-01-13T00:50:10.476Z,69.4
2019-01-13T00:51:10.557Z,69.4
2019-01-13T00:52:10.433Z,81.4
2019-01-13T00:53:10.539Z,63.4
2019-01-13T00:54:10.487Z,72.4
2019-01-13T00:55:10.461Z,75.4
2019-01-13T00:56:10.474Z,72.4
2019-01-13T00:57:10.488Z,81.4
2019-01-13T00:58:10.501Z,75.4
2019-01-13T00:59:10.491Z,87.4
2019-01-13T01:00:10.463Z,78.4
2019-01-13T01:01:10.551Z,66.4
2019-01-13T01:02:10.531Z,69.4
2019-01-13T01:03:10.490Z,78.4
2019-01-13T01:04:10.537Z,81.4
2019-01-13T01:05:10.454Z,87.4
2019-01-13T01:06:10.482Z,78.4
2019-01-13T01:07:10.482Z,81.4
2019-01-13T01:08:10.451Z,81.4
2019-01-13T01:09:10.528Z,93.5
2019-01-13T01:10:10.474Z,90.4
2019-01-13T01:11:10.472Z,99.5
2019-01-13T01:12:10.460Z,81.4
2019-01-13T01:13:10.466Z,81.4
2019-01-13T01:14:10.510Z,81.4
2019-01-13T01:15:10.491Z,99.5
2019-01-13T01:16:10.475Z,81.4
2019-01-13T01:17:10.479Z,105.5
2019-01-13T01:18:10.464Z,81.4
2019-01-13T01:19:10.511Z,96.5
2019-01-13T01:20:10.551Z,93.5
2019-01-13T01:21:10.468Z,69.4
2019-01-13T01:22:10.461Z,99.5
2019-01-13T01:23:10.470Z,78.4
2019-01-13T01:24:10.545Z,84.4
2019-01-13T01:25:10.433Z,75.4
2019-01-13T01:26:10.465Z,78.4
2019-01-13T01:27:10.447Z,81.4
2019-01-13T01:28:10.460Z,90.4
2019-01-13T01:29:10.521Z,84.4
2019-01-13T01:30:10.440Z,81.4
2019-01-13T01:31:10.432Z,93.5
2019-01-13T01:32:10.467Z,81.4
2019-01-13T01:33:10.509Z,60.3
2019-01-13T01:34:10.462Z,69.4
2019-01-13T01:35:10.533Z,81.4
2019-01-13T01:36:10.498Z,81.4
2019-01-13T01:37:10.451Z,78.4
2019-01-13T01:38:10.468Z,75.4
2019-01-13T01:39:10.463Z,81.4
2019-01-13T01:40:10.529Z,81.4
2019-01-13T01:41:10.424Z,93.5
2019-01-13T01:42:10.485Z,87.4
2019-01-13T01:43:10.457Z,81.4
2019-01-13T01:44:10.475Z,84.4
2019-01-13T01:45:10.446Z,84.4
2019-01-13T01:46:10.512Z,75.4
2019-01-13T01:47:10.416Z,63.4
2019-01-13T01:48:10.535Z,69.4
2019-01-13T01:49:10.444Z,78.4
2019-01-13T01:50:10.510Z,66.4
2019-01-13T01:51:10.478Z,69.4
2019-01-13T01:52:10.472Z,69.4
2019-01-13T01:53:10.471Z,57.3
2019-01-13T01:54:10.495Z,54.3
2019-01-13T01:55:10.449Z,63.4
2019-01-13T01:56:10.487Z,66.4
2019-01-13T01:57:10.450Z,60.3
2019-01-13T01:58:10.478Z,51.3
2019-01-13T01:59:10.428Z,42.3
2019-01-13T02:00:10.474Z,48.3
2019-01-13T02:01:10.515Z,60.3
2019-01-13T02:02:10.460Z,42.3
2019-01-13T02:03:10.476Z,45.3
2019-01-13T02:04:10.450Z,36.3
2019-01-13T02:05:10.536Z,42.3
2019-01-13T02:06:10.459Z,42.3
2019-01-13T02:07:10.532Z,51.3
2019-01-13T02:08:10.435Z,54.3
2019-01-13T02:09:10.452Z,39.3
2019-01-13T02:10:10.453Z,48.3
2019-01-13T02:11:10.439Z,33.3
2019-01-13T02:12:10.607Z,51.3
2019-01-13T02:13:10.490Z,39.3
2019-01-13T02:14:10.419Z,45.3
2019-01-13T02:15:10.445Z,39.3
2019-01-13T02:16:10.436Z,39.3
2019-01-13T02:17:10.431Z,36.3
2019-01-13T02:18:10.487Z,51.3
2019-01-13T02:19:10.430Z,48.3
2019-01-13T02:20:10.498Z,36.3
2019-01-13T02:21:10.425Z,57.3
2019-01-13T02:22:10.423Z,42.3
2019-01-13T02:23:10.520Z,54.3
2019-01-13T02:24:10.419Z,51.3
2019-01-13T02:25:10.414Z,42.3
2019-01-13T02:26:10.435Z,48.3
2019-01-13T02:27:10.446Z,54.3
2019-01-13T02:28:10.509Z,54.3
2019-01-13T02:29:10.437Z,54.3
2019-01-13T02:30:10.531Z,42.3
2019-01-13T02:31:10.444Z,48.3
2019-01-13T02:32:10.501Z,57.3
2019-01-13T02:33:10.422Z,48.3
2019-01-13T02:34:10.426Z,60.3
2019-01-13T02:35:10.474Z,57.3
2019-01-13T02:36:10.412Z,63.4
2019-01-13T02:37:10.424Z,51.3
2019-01-13T02:38:10.509Z,63.4
2019-01-13T02:39:10.437Z,57.3
2019-01-13T02:40:10.488Z,57.3
2019-01-13T02:41:10.391Z,60.3
2019-01-13T02:42:10.392Z,51.3
2019-01-13T02:43:10.423Z,57.3
2019-01-13T02:44:10.413Z,60.3
2019-01-13T02:45:10.509Z,45.3
2019-01-13T02:46:10.485Z,51.3
2019-01-13T02:47:10.380Z,54.3
2019-01-13T02:48:10.429Z,48.3
2019-01-13T02:49:10.478Z,48.3
2019-01-13T02:50:10.454Z,39.3
2019-01-13T02:51:10.417Z,48.3
2019-01-13T02:52:10.469Z,57.3
2019-01-13T02:53:10.431Z,51.3
2019-01-13T02:54:10.470Z,33.3
2019-01-13T02:55:10.434Z,42.3
2019-01-13T02:56:10.529Z,39.3
2019-01-13T02:57:10.450Z,27.3
2019-01-13T02:58:10.384Z,48.3
2019-01-13T02:59:10.422Z,21.3
2019-01-13T03:00:10.480Z,39.3
2019-01-13T03:01:10.454Z,42.3
2019-01-13T03:02:10.415Z,48.3
2019-01-13T03:03:10.390Z,51.3
2019-01-13T03:04:10.495Z,48.3
2019-01-13T03:05:10.419Z,36.3
2019-01-13T03:06:10.412Z,36.3
2019-01-13T03:07:10.501Z,51.3
2019-01-13T03:08:10.390Z,48.3
2019-01-13T03:09:10.414Z,60.3
2019-01-13T03:10:10.409Z,51.3
2019-01-13T03:11:10.458Z,54.3
2019-01-13T03:12:10.470Z,51.3
2019-01-13T03:13:10.488Z,45.3
2019-01-13T03:14:10.389Z,30.3
2019-01-13T03:15:10.405Z,45.3
2019-01-13T03:16:10.409Z,39.3
2019-01-13T03:17:10.411Z,39.3
2019-01-13T03:18:10.471Z,36.3
2019-01-13T03:19:10.400Z,54.3
2019-01-13T03:20:10.503Z,57.3
2019-01-13T03:21:10.421Z,45.3
2019-01-13T03:22:10.423Z,51.3
2019-01-13T03:23:10.491Z,60.3
2019-01-13T03:24:10.495Z,48.3
2019-01-13T03:25:11.982Z,63.4
2019-01-13T03:26:10.401Z,75.4
2019-01-13T03:27:10.401Z,78.4
2019-01-13T03:28:10.403Z,57.3
2019-01-13T03:29:10.460Z,66.4
2019-01-13T03:30:10.478Z,54.3
2019-01-13T03:31:13.672Z,42.3
2019-01-13T03:32:10.426Z,30.3
2019-01-13T03:33:10.492Z,45.3
2019-01-13T03:34:10.471Z,30.3
2019-01-13T03:35:10.397Z,48.3
2019-01-13T03:36:10.474Z,39.3
2019-01-13T03:37:10.389Z,39.3
2019-01-13T03:38:10.406Z,39.3
2019-01-13T03:39:10.390Z,33.3
2019-01-13T03:40:10.410Z,27.3
2019-01-13T03:41:10.425Z,36.3
2019-01-13T03:42:10.407Z,48.3
2019-01-13T03:43:10.400Z,48.3
2019-01-13T03:44:10.402Z,33.3
2019-01-13T03:45:10.398Z,30.3
2019-01-13T03:46:10.408Z,30.3
2019-01-13T03:47:10.368Z,24.3
2019-01-13T03:48:10.392Z,21.3
2019-01-13T03:49:10.384Z,36.3
2019-01-13T03:50:10.454Z,24.3
2019-01-13T03:51:10.415Z,30.3
2019-01-13T03:52:10.361Z,24.3
2019-01-13T03:53:10.471Z,27.3
2019-01-13T03:54:10.391Z,15.4
2019-01-13T03:55:10.414Z,42.3
2019-01-13T03:56:10.392Z,30.3
2019-01-13T03:57:10.372Z,33.3
2019-01-13T03:58:12.405Z,33.3
2019-01-13T03:59:10.415Z,39.3
2019-01-13T04:00:10.409Z,36.3
2019-01-13T04:01:18.327Z,27.3
2019-01-13T04:02:10.395Z,36.3
2019-01-13T04:03:10.432Z,45.3
2019-01-13T04:04:10.400Z,24.3
2019-01-13T04:05:10.391Z,27.3
2019-01-13T04:06:10.400Z,33.3
2019-01-13T04:07:10.462Z,30.3
2019-01-13T04:08:10.352Z,36.3
2019-01-13T04:09:10.376Z,39.3
2019-01-13T04:10:10.381Z,33.3
2019-01-13T04:11:10.446Z,30.3
2019-01-13T04:12:10.371Z,30.3
2019-01-13T04:13:10.447Z,24.3
2019-01-13T04:14:10.338Z,39.3
2019-01-13T04:15:10.444Z,48.3
2019-01-13T04:16:10.400Z,60.3
2019-01-13T04:17:10.372Z,42.3
2019-01-13T04:18:10.434Z,33.3
2019-01-13T04:19:10.373Z,36.3
2019-01-13T04:20:10.386Z,33.3
2019-01-13T04:21:10.410Z,39.3
2019-01-13T04:22:10.389Z,27.3
2019-01-13T04:23:10.463Z,33.3
2019-01-13T04:24:10.402Z,36.3
2019-01-13T04:25:10.356Z,36.3
2019-01-13T04:26:10.383Z,42.3
2019-01-13T04:27:10.368Z,36.3
2019-01-13T04:28:10.444Z,33.3
2019-01-13T04:29:10.370Z,36.3
2019-01-13T04:30:10.390Z,39.3
2019-01-13T04:31:10.415Z,30.3
2019-01-13T04:32:10.389Z,24.3
2019-01-13T04:33:10.449Z,30.3
2019-01-13T04:34:10.392Z,30.3
2019-01-13T04:35:10.393Z,27.3
2019-01-13T04:36:10.391Z,21.3
2019-01-13T04:37:10.468Z,27.3
2019-01-13T04:38:10.428Z,39.3
2019-01-13T04:39:10.375Z,33.3
2019-01-13T04:40:10.368Z,51.3
2019-01-13T04:41:10.332Z,39.3
2019-01-13T04:42:10.377Z,51.3
2019-01-13T04:43:10.426Z,33.3
2019-01-13T04:44:10.432Z,60.3
2019-01-13T04:45:10.363Z,66.4
2019-01-13T04:46:10.427Z,45.3
2019-01-13T04:47:10.335Z,30.3
2019-01-13T04:48:10.385Z,36.3
2019-01-13T04:49:10.433Z,48.3
2019-01-13T04:50:10.367Z,57.3
2019-01-13T04:51:10.369Z,60.3
2019-01-13T04:52:10.324Z,57.3
2019-01-13T04:53:10.359Z,66.4
2019-01-13T04:54:10.424Z,42.3
2019-01-13T04:55:10.387Z,42.3
2019-01-13T04:56:10.366Z,45.3
2019-01-13T04:57:10.350Z,42.3
2019-01-13T04:58:10.440Z,48.3
2019-01-13T04:59:10.355Z,36.3
2019-01-13T05:00:10.355Z,42.3
2019-01-13T05:01:10.373Z,33.3
2019-01-13T05:02:10.385Z,33.3
2019-01-13T05:03:10.384Z,48.3
2019-01-13T05:04:10.354Z,27.3
2019-01-13T05:05:10.358Z,45.3
2019-01-13T05:06:10.399Z,45.3
2019-01-13T05:07:10.366Z,45.3
2019-01-13T05:08:10.390Z,51.3
2019-01-13T05:09:10.315Z,39.3
2019-01-13T05:10:10.356Z,45.3
2019-01-13T05:11:10.345Z,42.3
2019-01-13T05:12:10.418Z,39.3
2019-01-13T05:13:10.445Z,45.3
2019-01-13T05:14:10.334Z,42.3
2019-01-13T05:15:10.460Z,33.3
2019-01-13T05:16:10.347Z,45.3
2019-01-13T05:17:10.358Z,42.3
2019-01-13T05:18:10.391Z,36.3
2019-01-13T05:19:10.313Z,45.3
2019-01-13T05:20:10.406Z,48.3
2019-01-13T05:21:10.454Z,48.3
2019-01-13T05:22:10.368Z,42.3
2019-01-13T05:23:10.433Z,48.3
2019-01-13T05:24:10.360Z,24.3
2019-01-13T05:25:10.379Z,39.3
2019-01-13T05:26:10.337Z,48.3
2019-01-13T05:27:10.340Z,30.3
2019-01-13T05:28:10.352Z,48.3
2019-01-13T05:29:10.349Z,51.3
2019-01-13T05:30:10.380Z,51.3
2019-01-13T05:31:10.328Z,48.3
2019-01-13T05:32:10.337Z,48.3
2019-01-13T05:33:10.349Z,60.3
2019-01-13T05:34:10.356Z,60.3
2019-01-13T05:35:10.433Z,63.4
2019-01-13T05:36:10.312Z,45.3
2019-01-13T05:37:10.341Z,42.3
2019-01-13T05:38:10.427Z,51.3
2019-01-13T05:39:10.346Z,42.3
2019-01-13T05:40:10.347Z,63.4
2019-01-13T05:41:10.320Z,39.3
2019-01-13T05:42:10.403Z,54.3
2019-01-13T05:43:10.337Z,51.3
2019-01-13T05:44:10.363Z,42.3
2019-01-13T05:45:10.371Z,63.4
2019-01-13T05:46:10.358Z,54.3
2019-01-13T05:47:10.344Z,63.4
2019-01-13T05:48:10.397Z,66.4
2019-01-13T05:49:10.335Z,54.3
2019-01-13T05:50:10.329Z,57.3
2019-01-13T05:51:10.315Z,45.3
2019-01-13T05:52:10.345Z,42.3
2019-01-13T05:53:13.119Z,54.3
2019-01-13T05:54:10.362Z,51.3
2019-01-13T05:55:14.634Z,42.3
2019-01-13T05:56:11.040Z,66.4
2019-01-13T05:57:10.468Z,63.4
2019-01-13T05:58:10.323Z,57.3
2019-01-13T05:59:10.336Z,51.3
2019-01-13T06:00:10.333Z,48.3
2019-01-13T06:01:10.329Z,51.3
2019-01-13T06:02:10.389Z,36.3
2019-01-13T06:03:10.286Z,63.4
2019-01-13T06:04:10.329Z,42.3
2019-01-13T06:05:10.318Z,30.3
2019-01-13T06:06:10.398Z,81.4
2019-01-13T06:07:10.331Z,63.4
2019-01-13T06:08:10.314Z,36.3
2019-01-13T06:09:10.335Z,60.3
2019-01-13T06:10:10.381Z,81.4
2019-01-13T06:11:10.413Z,51.3
2019-01-13T06:12:10.308Z,51.3
2019-01-13T06:13:10.334Z,48.3
2019-01-13T06:14:10.283Z,48.3
2019-01-13T06:15:10.380Z,57.3
2019-01-13T06:16:10.320Z,36.3
2019-01-13T06:17:10.317Z,51.3
2019-01-13T06:18:10.368Z,66.4
2019-01-13T06:19:10.367Z,33.3
2019-01-13T06:20:10.281Z,42.3
2019-01-13T06:21:10.329Z,57.3
2019-01-13T06:22:10.390Z,45.3
2019-01-13T06:23:10.396Z,60.3
2019-01-13T06:24:10.602Z,36.3
2019-01-13T06:25:10.288Z,57.3
2019-01-13T06:26:10.318Z,30.3
2019-01-13T06:27:10.380Z,42.3
2019-01-13T06:28:10.357Z,57.3
2019-01-13T06:29:10.307Z,39.3
2019-01-13T06:30:10.296Z,54.3
2019-01-13T06:31:10.321Z,63.4
2019-01-13T06:32:10.380Z,51.3
2019-01-13T06:33:10.322Z,63.4
2019-01-13T06:34:10.297Z,30.3
2019-01-13T06:35:10.292Z,54.3
2019-01-13T06:36:10.292Z,45.3
2019-01-13T06:37:10.373Z,51.3
2019-01-13T06:38:10.312Z,60.3
2019-01-13T06:39:10.387Z,51.3
2019-01-13T06:40:10.282Z,48.3
2019-01-13T06:41:10.289Z,42.3
2019-01-13T06:42:10.321Z,72.4
2019-01-13T06:43:10.372Z,63.4
2019-01-13T06:44:10.314Z,54.3
2019-01-13T06:45:10.340Z,42.3
2019-01-13T06:46:10.292Z,54.3
2019-01-13T06:47:10.267Z,48.3
2019-01-13T06:48:10.367Z,45.3
2019-01-13T06:49:10.325Z,51.3
2019-01-13T06:50:10.298Z,42.3
2019-01-13T06:51:10.304Z,39.3
2019-01-13T06:52:10.288Z,39.3
2019-01-13T06:53:10.368Z,36.3
2019-01-13T06:54:10.314Z,69.4
2019-01-13T06:55:10.326Z,60.3
2019-01-13T06:56:10.312Z,48.3
2019-01-13T06:57:10.291Z,54.3
2019-01-13T06:58:10.266Z,45.3
2019-01-13T06:59:10.316Z,48.3
2019-01-13T07:00:10.357Z,45.3
2019-01-13T07:01:10.361Z,33.3
2019-01-13T07:02:10.286Z,45.3
2019-01-13T07:03:10.281Z,42.3
2019-01-13T07:04:10.289Z,45.3
2019-01-13T07:05:10.367Z,48.3
2019-01-13T07:06:10.317Z,48.3
2019-01-13T07:07:10.285Z,51.3
2019-01-13T07:08:10.269Z,54.3
2019-01-13T07:09:10.283Z,39.3
2019-01-13T07:10:10.323Z,36.3
2019-01-13T07:11:10.311Z,45.3
2019-01-13T07:12:10.393Z,51.3
2019-01-13T07:13:10.363Z,57.3
2019-01-13T07:14:10.261Z,51.3
2019-01-13T07:15:10.296Z,57.3
2019-01-13T07:16:10.366Z,42.3
2019-01-13T07:17:10.287Z,48.3
2019-01-13T07:18:10.289Z,45.3
2019-01-13T07:19:10.296Z,60.3
2019-01-13T07:20:10.300Z,63.4
2019-01-13T07:21:10.356Z,66.4
2019-01-13T07:22:10.421Z,63.4
2019-01-13T07:23:10.498Z,57.3
2019-01-13T07:24:10.477Z,54.3
2019-01-13T07:25:10.287Z,57.3
2019-01-13T07:26:10.345Z,48.3
2019-01-13T07:27:10.259Z,48.3
2019-01-13T07:28:10.247Z,75.4
2019-01-13T07:29:10.327Z,60.3
2019-01-13T07:30:10.269Z,54.3
2019-01-13T07:31:10.262Z,54.3
2019-01-13T07:32:12.174Z,75.4
2019-01-13T07:33:10.770Z,57.3
2019-01-13T07:34:10.339Z,57.3
2019-01-13T07:35:10.262Z,54.3
2019-01-13T07:36:10.423Z,60.3
2019-01-13T07:37:10.271Z,57.3
2019-01-13T07:38:10.269Z,60.3
2019-01-13T07:39:10.355Z,51.3
2019-01-13T07:40:10.271Z,63.4
2019-01-13T07:41:10.230Z,69.4
2019-01-13T07:42:10.278Z,69.4
2019-01-13T07:43:10.293Z,51.3
2019-01-13T07:44:10.345Z,54.3
2019-01-13T07:45:10.264Z,57.3
2019-01-13T07:46:10.307Z,66.4
2019-01-13T07:47:10.245Z,66.4
2019-01-13T07:48:10.269Z,78.4
2019-01-13T07:49:10.281Z,66.4
2019-01-13T07:50:10.367Z,60.3
2019-01-13T07:51:10.351Z,51.3
2019-01-13T07:52:10.236Z,72.4
2019-01-13T07:53:10.274Z,54.3
2019-01-13T07:54:10.300Z,93.5
2019-01-13T07:55:10.355Z,75.4
2019-01-13T07:56:10.280Z,72.4
2019-01-13T07:57:10.237Z,63.4
2019-01-13T07:58:10.347Z,75.4
2019-01-13T07:59:10.265Z,51.3
2019-01-13T08:00:10.270Z,54.3
2019-01-13T08:01:10.331Z,63.4
2019-01-13T08:02:10.270Z,57.3
2019-01-13T08:03:10.310Z,57.3
2019-01-13T08:04:10.270Z,54.3
2019-01-13T08:05:10.277Z,57.3
2019-01-13T08:06:10.354Z,57.3
2019-01-13T08:07:10.280Z,48.3
2019-01-13T08:08:10.222Z,54.3
2019-01-13T08:09:10.226Z,66.4
2019-01-13T08:10:10.276Z,54.3
2019-01-13T08:11:10.251Z,75.4
2019-01-13T08:12:10.249Z,54.3
2019-01-13T08:13:10.346Z,51.3
2019-01-13T08:14:10.270Z,72.4
2019-01-13T08:15:10.264Z,51.3
2019-01-13T08:16:10.241Z,63.4
2019-01-13T08:17:10.255Z,51.3
2019-01-13T08:18:10.333Z,54.3
2019-01-13T08:19:10.239Z,57.3
2019-01-13T08:20:10.283Z,54.3
2019-01-13T08:21:10.258Z,51.3
2019-01-13T08:22:10.300Z,51.3
2019-01-13T08:23:10.250Z,57.3
2019-01-13T08:24:10.217Z,39.3
2019-01-13T08:25:10.250Z,48.3
2019-01-13T08:26:10.319Z,54.3
2019-01-13T08:27:10.248Z,51.3
2019-01-13T08:28:10.259Z,45.3
2019-01-13T08:29:10.257Z,45.3
2019-01-13T08:30:10.321Z,48.3
2019-01-13T08:31:10.251Z,60.3
2019-01-13T08:32:10.273Z,51.3
2019-01-13T08:33:10.273Z,48.3
2019-01-13T08:34:10.257Z,42.3
2019-01-13T08:35:10.308Z,48.3
2019-01-13T08:36:10.274Z,45.3
2019-01-13T08:37:10.259Z,60.3
2019-01-13T08:38:10.261Z,69.4
2019-01-13T08:39:10.235Z,57.3
2019-01-13T08:40:10.333Z,63.4
2019-01-13T08:41:10.232Z,51.3
2019-01-13T08:42:10.320Z,51.3
2019-01-13T08:43:10.320Z,54.3
2019-01-13T08:44:10.238Z,42.3
2019-01-13T08:45:10.247Z,45.3
2019-01-13T08:46:10.237Z,48.3
2019-01-13T08:47:10.326Z,51.3
2019-01-13T08:48:10.265Z,48.3
2019-01-13T08:49:10.270Z,63.4
2019-01-13T08:50:10.239Z,60.3
2019-01-13T08:51:10.314Z,51.3
2019-01-13T08:52:10.277Z,69.4
2019-01-13T08:53:10.309Z,54.3
2019-01-13T08:54:10.261Z,51.3
2019-01-13T08:55:10.248Z,48.3
2019-01-13T08:56:10.291Z,51.3
2019-01-13T08:57:10.207Z,60.3
2019-01-13T08:58:10.278Z,51.3
2019-01-13T08:59:10.314Z,60.3
2019-01-13T09:00:10.243Z,51.3
2019-01-13T09:01:10.248Z,69.4
2019-01-13T09:02:10.270Z,60.3
2019-01-13T09:03:10.247Z,60.3
2019-01-13T09:04:10.296Z,42.3
2019-01-13T09:05:10.247Z,54.3
2019-01-13T09:06:10.238Z,48.3
2019-01-13T09:07:10.238Z,54.3
2019-01-13T09:08:10.271Z,48.3
2019-01-13T09:09:10.246Z,48.3
2019-01-13T09:10:10.235Z,39.3
2019-01-13T09:11:10.252Z,60.3
2019-01-13T09:12:10.310Z,78.4
2019-01-13T09:13:10.280Z,48.3
2019-01-13T09:14:10.216Z,57.3
2019-01-13T09:15:10.251Z,63.4
2019-01-13T09:16:10.255Z,63.4
2019-01-13T09:17:10.279Z,42.3
2019-01-13T09:18:10.241Z,45.3
2019-01-13T09:19:10.211Z,48.3
2019-01-13T09:20:10.305Z,54.3
2019-01-13T09:21:10.224Z,54.3
2019-01-13T09:22:10.241Z,48.3
2019-01-13T09:23:10.238Z,54.3
2019-01-13T09:24:10.275Z,48.3
2019-01-13T09:25:10.209Z,63.4
2019-01-13T09:26:10.219Z,45.3
2019-01-13T09:27:10.239Z,48.3
2019-01-13T09:28:10.312Z,48.3
2019-01-13T09:29:10.230Z,48.3
2019-01-13T09:30:10.210Z,48.3
2019-01-13T09:31:10.294Z,42.3
2019-01-13T09:32:10.236Z,54.3
2019-01-13T09:33:10.292Z,60.3
2019-01-13T09:34:10.218Z,63.4
2019-01-13T09:35:10.199Z,45.3
2019-01-13T09:36:10.267Z,42.3
2019-01-13T09:37:10.247Z,45.3
2019-01-13T09:38:10.221Z,63.4
2019-01-13T09:39:10.214Z,57.3
2019-01-13T09:40:10.225Z,57.3
2019-01-13T09:41:10.256Z,51.3
2019-01-13T09:42:10.224Z,54.3
2019-01-13T09:43:11.796Z,54.3
2019-01-13T09:44:10.209Z,51.3
2019-01-13T09:45:10.295Z,48.3
2019-01-13T09:46:10.187Z,42.3
2019-01-13T09:47:10.192Z,69.4
2019-01-13T09:48:10.274Z,48.3
2019-01-13T09:49:10.299Z,63.4
2019-01-13T09:50:10.213Z,66.4
2019-01-13T09:51:10.207Z,51.3
2019-01-13T09:52:10.212Z,54.3
2019-01-13T09:53:10.300Z,63.4
2019-01-13T09:54:10.212Z,60.3
2019-01-13T09:55:10.220Z,69.4
2019-01-13T09:56:10.295Z,54.3
2019-01-13T09:57:10.187Z,36.3
2019-01-13T09:58:10.174Z,51.3
2019-01-13T09:59:10.206Z,45.3
2019-01-13T10:00:10.234Z,51.3
2019-01-13T10:01:10.270Z,69.4
2019-01-13T10:02:10.206Z,75.4
2019-01-13T10:03:10.251Z,60.3
2019-01-13T10:04:10.204Z,60.3
2019-01-13T10:05:10.207Z,54.3
2019-01-13T10:06:10.271Z,75.4
2019-01-13T10:07:10.221Z,66.4
2019-01-13T10:08:10.265Z,66.4
2019-01-13T10:09:10.212Z,48.3
2019-01-13T10:10:10.205Z,69.4
2019-01-13T10:11:10.274Z,75.4
2019-01-13T10:12:10.230Z,54.3
2019-01-13T10:13:10.179Z,60.3
2019-01-13T10:14:10.203Z,75.4
2019-01-13T10:15:10.264Z,63.4
2019-01-13T10:16:10.200Z,48.3
2019-01-13T10:17:10.190Z,63.4
2019-01-13T10:18:10.281Z,60.3
2019-01-13T10:19:10.178Z,63.4
2019-01-13T10:20:10.263Z,72.4
2019-01-13T10:21:10.254Z,54.3
2019-01-13T10:22:10.203Z,66.4
2019-01-13T10:23:10.267Z,60.3
2019-01-13T10:24:10.186Z,63.4
2019-01-13T10:25:10.177Z,72.4
2019-01-13T10:26:10.211Z,66.4
2019-01-13T10:27:10.240Z,69.4
2019-01-13T10:28:10.275Z,75.4
2019-01-13T10:29:10.199Z,54.3
2019-01-13T10:30:10.202Z,81.4
2019-01-13T10:31:10.203Z,60.3
2019-01-13T10:32:10.206Z,63.4
2019-01-13T10:33:10.270Z,72.4
2019-01-13T10:34:10.225Z,63.4
2019-01-13T10:35:10.192Z,69.4
2019-01-13T10:36:10.207Z,63.4
2019-01-13T10:37:10.203Z,51.3
2019-01-13T10:38:10.259Z,60.3
2019-01-13T10:39:10.177Z,69.4
2019-01-13T10:40:10.188Z,75.4
2019-01-13T10:41:10.182Z,75.4
2019-01-13T10:42:10.267Z,54.3
2019-01-13T10:43:10.198Z,81.4
2019-01-13T10:44:10.193Z,63.4
2019-01-13T10:45:10.194Z,69.4
2019-01-13T10:46:10.161Z,93.5
2019-01-13T10:47:10.235Z,66.4
2019-01-13T10:48:10.188Z,60.3
2019-01-13T10:49:10.194Z,63.4
2019-01-13T10:50:10.195Z,99.5
2019-01-13T10:51:10.202Z,75.4
2019-01-13T10:52:10.240Z,81.4
2019-01-13T10:53:10.184Z,90.4
2019-01-13T10:54:10.731Z,51.3
2019-01-13T10:55:10.204Z,75.4
2019-01-13T10:56:10.305Z,75.4
2019-01-13T10:57:10.144Z,60.3
2019-01-13T10:58:10.188Z,78.4
2019-01-13T10:59:10.180Z,75.4
2019-01-13T11:00:10.201Z,63.4
2019-01-13T11:01:10.257Z,60.3
2019-01-13T11:02:10.195Z,54.3
2019-01-13T11:03:10.165Z,96.5
2019-01-13T11:04:10.200Z,93.5
2019-01-13T11:05:13.260Z,81.4
2019-01-13T11:06:10.254Z,75.4
2019-01-13T11:07:10.246Z,84.4
2019-01-13T11:08:13.088Z,102.5
2019-01-13T11:09:10.195Z,93.5
2019-01-13T11:10:10.272Z,60.3
2019-01-13T11:11:10.247Z,81.4
2019-01-13T11:12:10.166Z,102.5
2019-01-13T11:13:10.202Z,75.4
2019-01-13T11:14:10.151Z,69.4
2019-01-13T11:15:10.178Z,81.4
2019-01-13T11:16:10.255Z,90.4
2019-01-13T11:17:10.247Z,81.4
2019-01-13T11:18:10.259Z,69.4
2019-01-13T11:19:10.154Z,69.4
2019-01-13T11:20:10.176Z,84.4
2019-01-13T11:21:10.179Z,81.4
2019-01-13T11:22:10.201Z,66.4
2019-01-13T11:23:10.250Z,72.4
2019-01-13T11:24:10.163Z,72.4
2019-01-13T11:25:10.174Z,81.4
2019-01-13T11:26:10.189Z,93.5
2019-01-13T11:27:10.190Z,72.4
2019-01-13T11:28:10.235Z,75.4
2019-01-13T11:29:10.172Z,75.4
2019-01-13T11:30:10.177Z,81.4
2019-01-13T11:31:10.241Z,60.3
2019-01-13T11:32:10.180Z,69.4
2019-01-13T11:33:11.155Z,69.4
2019-01-13T11:34:10.174Z,87.4
2019-01-13T11:35:10.217Z,66.4
2019-01-13T11:36:10.144Z,72.4
2019-01-13T11:37:10.175Z,72.4
2019-01-13T11:38:10.279Z,75.4
2019-01-13T11:39:10.173Z,81.4
2019-01-13T11:40:10.180Z,69.4
2019-01-13T11:41:10.138Z,66.4
2019-01-13T11:42:10.228Z,75.4
2019-01-13T11:43:11.241Z,99.5
2019-01-13T11:44:10.178Z,84.4
2019-01-13T11:45:10.166Z,75.4
2019-01-13T11:46:10.141Z,78.4
2019-01-13T11:47:10.152Z,84.4
2019-01-13T11:48:10.258Z,81.4
2019-01-13T11:49:10.186Z,90.4
2019-01-13T11:50:10.174Z,93.5
2019-01-13T11:51:10.176Z,66.4
2019-01-13T11:52:10.154Z,78.4
2019-01-13T11:53:10.241Z,72.4
2019-01-13T11:54:10.165Z,96.5
2019-01-13T11:55:10.174Z,93.5
2019-01-13T11:56:10.217Z,81.4
2019-01-13T11:57:10.220Z,90.4
2019-01-13T11:58:10.158Z,75.4
2019-01-13T11:59:10.184Z,60.3
2019-01-13T12:00:10.193Z,69.4
2019-01-13T12:01:10.230Z,75.4
2019-01-13T12:02:10.155Z,84.4
2019-01-13T12:03:17.712Z,75.4
2019-01-13T12:04:10.169Z,84.4
2019-01-13T12:05:10.173Z,63.4
2019-01-13T12:06:10.215Z,54.3
2019-01-13T12:07:10.190Z,84.4
2019-01-13T12:08:10.137Z,99.5
2019-01-13T12:09:10.165Z,81.4
2019-01-13T12:10:10.172Z,78.4
2019-01-13T12:11:10.236Z,72.4
2019-01-13T12:12:10.194Z,63.4
2019-01-13T12:13:10.127Z,69.4
2019-01-13T12:14:10.214Z,81.4
2019-01-13T12:15:10.177Z,81.4
2019-01-13T12:16:10.175Z,96.5
2019-01-13T12:17:10.167Z,84.4
2019-01-13T12:18:10.180Z,69.4
2019-01-13T12:19:10.197Z,69.4
2019-01-13T12:20:10.158Z,87.4
2019-01-13T12:21:10.224Z,99.5
2019-01-13T12:22:10.172Z,63.4
2019-01-13T12:23:10.171Z,75.4
2019-01-13T12:24:10.157Z,75.4
2019-01-13T12:25:10.126Z,81.4
2019-01-13T12:26:10.217Z,75.4
2019-01-13T12:27:10.168Z,72.4
2019-01-13T12:28:10.159Z,60.3
2019-01-13T12:29:10.210Z,69.4
2019-01-13T12:30:10.153Z,72.4
2019-01-13T12:31:10.222Z,66.4
2019-01-13T12:32:10.168Z,81.4
2019-01-13T12:33:10.164Z,93.5
2019-01-13T12:34:10.151Z,75.4
2019-01-13T12:35:10.208Z,69.4
2019-01-13T12:36:10.151Z,84.4
2019-01-13T12:37:10.177Z,60.3
2019-01-13T12:38:10.139Z,69.4
2019-01-13T12:39:10.157Z,81.4
2019-01-13T12:40:10.232Z,57.3
2019-01-13T12:41:10.127Z,60.3
2019-01-13T12:42:10.151Z,78.4
2019-01-13T12:43:10.227Z,66.4
2019-01-13T12:44:10.164Z,75.4
2019-01-13T12:45:10.161Z,54.3
2019-01-13T12:46:11.495Z,66.4
2019-01-13T12:47:10.211Z,81.4
2019-01-13T12:48:10.168Z,60.3
2019-01-13T12:49:10.160Z,60.3
2019-01-13T12:50:10.225Z,60.3
2019-01-13T12:51:11.755Z,75.4
2019-01-13T12:52:10.105Z,78.4
2019-01-13T12:53:10.227Z,75.4
2019-01-13T12:54:10.156Z,60.3
2019-01-13T12:55:10.145Z,69.4
2019-01-13T12:56:10.155Z,75.4
2019-01-13T12:57:10.138Z,48.3
2019-01-13T12:58:10.264Z,57.3
2019-01-13T12:59:10.149Z,63.4
2019-01-13T13:00:10.152Z,66.4
2019-01-13T13:01:10.167Z,63.4
2019-01-13T13:02:10.112Z,54.3
2019-01-13T13:03:10.207Z,42.3
2019-01-13T13:04:10.139Z,57.3
2019-01-13T13:05:10.148Z,60.3
2019-01-13T13:06:10.232Z,72.4
2019-01-13T13:07:10.138Z,51.3
2019-01-13T13:08:10.199Z,48.3
2019-01-13T13:09:10.151Z,60.3
2019-01-13T13:10:11.255Z,63.4
2019-01-13T13:11:10.210Z,45.3
2019-01-13T13:12:10.209Z,66.4
2019-01-13T13:13:10.123Z,63.4
2019-01-13T13:14:10.962Z,63.4
2019-01-13T13:15:10.165Z,45.3
2019-01-13T13:16:10.287Z,48.3
2019-01-13T13:17:10.352Z,48.3
2019-01-13T13:18:10.271Z,57.3